Historyczne dane pomiarowe

Dodano dane terminowe – wersja testowa.

Dane z okresu 1951-2019

Wersja bazy: 1.34 [2019-03-16, lista zmian], aktualizacja planowana na 2019-04-15

Dane meteo z obszaru Polski uzyskane na podstawie danych udostępnionych przez Instytut Meteorologii i Gospodarki Wodnej – Państwowy Instytut Badawczy.

 

Wybierz Datę:    

       

TemperaturaWilgotnośćWiatrCiśnienieOpadyŚniegCzas trwania zjawisk
 Stacja t tx tn tng RH VA  wxwx mslp ppp RRR   cm mm wxwxwxwxwxwxwx
1956-10-11 4.6 8.5 -0.9- 73.5- 8.0 2.0---- 0.0------------
1956-10-12 7.0 11.1 3.1- 74.5- 5.3 5.3---- 0.0------------
1956-10-13 9.0 10.5 3.6- 69.8- 8.0 7.3---- 0.8------------
1956-10-14 8.4 10.9 5.2- 70.5- 4.0 5.7---- 3.1------------
1956-10-15 5.2 9.9 0.3- 77.3- 0.0 1.7---- 0.0------------
1956-10-16 3.5 9.9 -1.7- 83.8- 3.7 2.7---- 0.0------------
1956-10-17 2.6 10.4 -2.9- 86.8- 2.7 0.7---- 0.0------------
1956-10-18 7.8 13.4 -2.9- 70.0- 3.7 1.7---- 0.0------------
1956-10-19 10.4 12.4 7.5- 70.5- 8.0 3.0---- 0.0------------
1956-10-20 10.4 11.1 7.4- 87.3- 8.0 3.7---- 0.4------------
1956-10-21 11.9 16.5 9.0- 86.8- 5.3 3.3---- 0.0------------
1956-10-22 12.0 17.5 7.5- 84.5- 2.0 2.0---- 0.0------------
1956-10-23 9.8 17.0 7.2- 87.8- 0.0 1.7---- 0.0------------
1956-10-24 10.0 13.6 4.1- 87.5- 2.7 2.0---- 0.0------------
1956-10-25 9.3 16.1 -0.1- 79.5- 2.7 2.3---- 0.0------------
1956-10-26 9.2 17.0 2.5- 83.3- 0.3 1.7---- 0.0------------
1956-10-27 8.2 12.9 1.3- 90.5- 7.7 1.0---- 1.3------------
1956-10-28 9.6 13.5 6.5- 84.5- 5.3 2.7---- 1.1------------
1956-10-29 5.7 9.5 3.3- 79.8- 8.0 2.7---- 1.2------------
1956-10-30 3.6 6.6 1.1- 90.3- 8.0 2.3---- 0.1------------
1956-10-31 -4.5 2.6 -7.3- 91.0- 5.3 3.7---- 0.0------------
1956-11-01 -0.8 6.0 -9.1- 79.5- 0.0 2.7---- 0.0------------
1956-11-02 0.8 6.5 -2.9- 78.0- 6.7 2.0---- 0.0------------
1956-11-03 -1.6 2.6 -4.4- 87.5- 5.3 1.3---- 0.0------------
1956-11-04 -3.0 2.6 -7.4- 90.3- 2.7 1.0---- 0.0------------
1956-11-05 -0.1 2.3 -7.4- 83.0- 5.3 3.0---- 1.3------------
1956-11-06 0.2 2.1 -1.3- 92.0- 5.7 2.3---- 2.2------------
1956-11-07 -1.8 0.6 -4.4- 89.8- 8.0 3.3---- 4.5-- 9---------
1956-11-08 -8.4 -2.9-12.5- 81.0- 0.7 1.3---- 0.0-- 9---------
1956-11-09 -8.0 -5.3-14.4- 86.0- 4.0 1.3---- 0.0-- 7---------
105.1 ms

 

Źródłem pochodzenia danych jest Instytut Meteorologii i Gospodarki Wodnej – Państwowy Instytut Badawczy. Dane Instytutu Meteorologii i Gospodarki Wodnej – Państwowego Instytutu Badawczego zostały przetworzone.

Dane źródłowe można odnaleźć na stronie https://dane.imgw.pl